Time;durP1;ratioP1;P1;durP2;ratioP2;P2;SDS_P1;SDS_P2;PMS_P1;PMS_P2;Temp;Humidity;BMP_temperature;BMP_pressure;BME280_temperature;BME280_humidity;BME280_pressure;Samples;Min_cycle;Max_cycle;Signal;HPM_P1;HPM_P2
2022/04/02 00:01:54;;;;;;;7.78;3.70;;;;;;;;;;4981648;28;20421;-70
2022/04/02 00:04:20;;;;;;;6.80;3.40;;;;;;;;;;4976789;28;20420;-70
2022/04/02 00:06:47;;;;;;;7.78;3.70;;;;;;;;;;4957168;28;20481;-70
2022/04/02 00:09:13;;;;;;;6.53;3.50;;;;;;;;;;4991777;28;20433;-70
2022/04/02 00:11:39;;;;;;;6.53;3.47;;;;;;;;;;4981863;28;20490;-70
2022/04/02 00:14:05;;;;;;;6.63;3.80;;;;;;;;;;4972842;28;20466;-70
2022/04/02 00:16:31;;;;;;;5.97;3.80;;;;;;;;;;4974147;28;20432;-71
2022/04/02 00:18:57;;;;;;;7.82;3.70;;;;;;;;;;4987618;28;20924;-71
2022/04/02 00:21:23;;;;;;;7.47;3.55;;;;;;;;;;4956871;28;20872;-70
2022/04/02 00:23:49;;;;;;;7.88;3.50;;;;;;;;;;4976423;28;20471;-71
2022/04/02 00:26:18;;;;;;;5.88;3.47;;;;;;;;;;4990262;28;20893;-71
2022/04/02 00:28:44;;;;;;;6.75;3.33;;;;;;;;;;4981481;28;20449;-71
2022/04/02 00:31:12;;;;;;;7.78;4.13;;;;;;;;;;4984993;28;20442;-71
2022/04/02 00:33:39;;;;;;;6.40;3.50;;;;;;;;;;4990411;28;21036;-70
2022/04/02 00:36:06;;;;;;;7.57;3.50;;;;;;;;;;4999546;28;20445;-69
2022/04/02 00:38:32;;;;;;;6.05;3.53;;;;;;;;;;4955309;28;20436;-69
2022/04/02 00:40:58;;;;;;;7.40;3.40;;;;;;;;;;4991178;28;20433;-69
2022/04/02 00:43:26;;;;;;;6.50;3.45;;;;;;;;;;4990197;28;20431;-69
2022/04/02 00:45:56;;;;;;;6.18;3.15;;;;;;;;;;4998346;28;20436;-72
2022/04/02 00:48:23;;;;;;;6.20;3.40;;;;;;;;;;5001612;28;20944;-72
2022/04/02 00:50:55;;;;;;;6.95;3.70;;;;;;;;;;4995279;28;21015;-72
2022/04/02 00:53:21;;;;;;;7.55;3.55;;;;;;;;;;5001103;28;20589;-71
2022/04/02 00:55:48;;;;;;;5.60;3.30;;;;;;;;;;4995805;28;20916;-71
2022/04/02 00:58:14;;;;;;;6.00;3.50;;;;;;;;;;4983142;28;20880;-71
2022/04/02 01:00:40;;;;;;;7.07;3.30;;;;;;;;;;4986706;28;20425;-72
2022/04/02 01:03:07;;;;;;;6.20;3.60;;;;;;;;;;4992040;28;20436;-71
2022/04/02 01:05:35;;;;;;;7.03;3.10;;;;;;;;;;4987237;28;20557;-71
2022/04/02 01:08:04;;;;;;;5.47;3.30;;;;;;;;;;4990222;28;20466;-71
2022/04/02 01:10:30;;;;;;;6.40;3.22;;;;;;;;;;4991570;28;20492;-72
2022/04/02 01:12:56;;;;;;;5.97;3.47;;;;;;;;;;4970610;28;20458;-71
2022/04/02 01:15:22;;;;;;;5.93;3.03;;;;;;;;;;4991878;28;20946;-71
2022/04/02 01:17:48;;;;;;;6.30;3.55;;;;;;;;;;4990734;28;20427;-71
2022/04/02 01:20:15;;;;;;;6.20;3.50;;;;;;;;;;4999534;28;20432;-71
2022/04/02 01:22:41;;;;;;;6.88;3.53;;;;;;;;;;4989462;28;20530;-71
2022/04/02 01:25:08;;;;;;;6.55;3.70;;;;;;;;;;4997046;28;20489;-71
2022/04/02 01:27:35;;;;;;;9.50;4.13;;;;;;;;;;4973627;28;20423;-71
2022/04/02 01:30:01;;;;;;;8.13;3.50;;;;;;;;;;4980195;28;20425;-71
2022/04/02 01:32:27;;;;;;;9.55;3.90;;;;;;;;;;4974223;28;20448;-71
2022/04/02 01:34:53;;;;;;;8.55;3.75;;;;;;;;;;4997330;28;20446;-72
2022/04/02 01:37:19;;;;;;;8.35;3.70;;;;;;;;;;5005419;28;20796;-71
2022/04/02 01:39:45;;;;;;;7.30;3.65;;;;;;;;;;5000426;28;20428;-71
2022/04/02 01:42:13;;;;;;;7.95;3.83;;;;;;;;;;4996704;28;20452;-71
2022/04/02 01:44:41;;;;;;;6.55;3.72;;;;;;;;;;5004951;28;20529;-71
2022/04/02 01:47:07;;;;;;;10.03;3.50;;;;;;;;;;4975195;28;20571;-71
2022/04/02 01:49:33;;;;;;;6.40;3.63;;;;;;;;;;4964367;28;20440;-71
2022/04/02 01:51:59;;;;;;;6.30;3.75;;;;;;;;;;4998520;28;20455;-71
2022/04/02 01:54:25;;;;;;;8.80;3.92;;;;;;;;;;4989462;28;20429;-71
2022/04/02 01:56:51;;;;;;;7.97;3.97;;;;;;;;;;4961937;28;20432;-71
2022/04/02 01:59:17;;;;;;;8.02;3.67;;;;;;;;;;5007537;28;20688;-71
2022/04/02 02:01:43;;;;;;;11.68;4.75;;;;;;;;;;4989433;28;20430;-69
2022/04/02 02:04:10;;;;;;;7.60;4.20;;;;;;;;;;5000545;28;20459;-70
2022/04/02 02:06:40;;;;;;;8.57;4.20;;;;;;;;;;5004254;28;20424;-70
2022/04/02 02:09:08;;;;;;;10.15;3.83;;;;;;;;;;5004229;28;20417;-70
2022/04/02 02:11:34;;;;;;;8.23;4.40;;;;;;;;;;4975985;28;20478;-70
2022/04/02 02:14:00;;;;;;;10.10;4.28;;;;;;;;;;5004367;28;20429;-71
2022/04/02 02:16:26;;;;;;;9.82;4.20;;;;;;;;;;5004765;28;20488;-71
2022/04/02 02:18:52;;;;;;;6.53;3.97;;;;;;;;;;4990232;28;20440;-71
2022/04/02 02:21:18;;;;;;;8.23;4.20;;;;;;;;;;4985180;28;20433;-71
2022/04/02 02:23:44;;;;;;;6.13;3.63;;;;;;;;;;4992819;28;20435;-70
2022/04/02 02:26:10;;;;;;;8.43;4.03;;;;;;;;;;4983100;28;20459;-71
2022/04/02 02:28:37;;;;;;;8.05;4.00;;;;;;;;;;4984506;28;20440;-70
2022/04/02 02:31:03;;;;;;;8.17;4.20;;;;;;;;;;4997184;28;20969;-71
2022/04/02 02:36:14;;;;;;;7.82;4.03;;;;;;;;;;5000759;28;20501;-70
2022/04/02 02:38:40;;;;;;;6.82;3.58;;;;;;;;;;4999588;28;20421;-70
2022/04/02 02:41:07;;;;;;;7.88;4.10;;;;;;;;;;4985387;28;20437;-70
2022/04/02 02:43:33;;;;;;;8.35;3.95;;;;;;;;;;4971642;28;20432;-71
2022/04/02 02:45:59;;;;;;;7.13;4.10;;;;;;;;;;4994157;28;20496;-71
2022/04/02 02:48:25;;;;;;;8.55;4.07;;;;;;;;;;4985421;28;20422;-71
2022/04/02 02:50:51;;;;;;;9.43;4.00;;;;;;;;;;4991767;28;20440;-70
2022/04/02 02:53:17;;;;;;;6.25;3.70;;;;;;;;;;5004264;28;20437;-70
2022/04/02 02:55:44;;;;;;;7.20;3.73;;;;;;;;;;5006825;28;20549;-71
2022/04/02 02:58:10;;;;;;;9.18;4.05;;;;;;;;;;4985004;28;20431;-71
2022/04/02 03:00:36;;;;;;;7.03;4.00;;;;;;;;;;4989568;28;20497;-71
2022/04/02 03:03:02;;;;;;;6.90;4.00;;;;;;;;;;4997353;28;20493;-71
2022/04/02 03:05:28;;;;;;;10.68;4.18;;;;;;;;;;4989518;28;20439;-71
2022/04/02 03:07:55;;;;;;;7.30;3.80;;;;;;;;;;5004564;28;20433;-71
2022/04/02 03:10:23;;;;;;;6.55;3.80;;;;;;;;;;4975148;28;20435;-70
2022/04/02 03:12:51;;;;;;;7.68;4.20;;;;;;;;;;4991417;28;20905;-70
2022/04/02 03:15:18;;;;;;;7.97;4.05;;;;;;;;;;4984124;28;20878;-70
2022/04/02 03:17:44;;;;;;;9.65;4.10;;;;;;;;;;4983518;28;20539;-71
2022/04/02 03:20:11;;;;;;;6.70;3.72;;;;;;;;;;4992392;28;20451;-70
2022/04/02 03:22:45;;;;;;;9.13;3.73;;;;;;;;;;4980172;28;20428;-70
2022/04/02 03:25:21;;;;;;;6.63;4.05;;;;;;;;;;5002125;28;20506;-70
2022/04/02 03:27:48;;;;;;;7.55;4.00;;;;;;;;;;4991946;28;20833;-71
2022/04/02 03:30:15;;;;;;;8.40;3.90;;;;;;;;;;4980839;28;20443;-70
2022/04/02 03:32:42;;;;;;;7.75;3.80;;;;;;;;;;4995845;28;20523;-70
2022/04/02 03:35:08;;;;;;;7.10;3.78;;;;;;;;;;4996253;28;20455;-70
2022/04/02 03:37:36;;;;;;;8.63;4.10;;;;;;;;;;4987574;28;20442;-70
2022/04/02 03:40:05;;;;;;;7.88;3.70;;;;;;;;;;5005332;28;20437;-69
2022/04/02 03:42:32;;;;;;;8.60;3.88;;;;;;;;;;5010168;28;20467;-70
2022/04/02 03:44:58;;;;;;;9.90;3.97;;;;;;;;;;4997290;28;20484;-70
2022/04/02 03:47:24;;;;;;;6.53;3.57;;;;;;;;;;4982897;28;20448;-70
2022/04/02 03:49:53;;;;;;;6.18;3.40;;;;;;;;;;4996708;28;20957;-70
2022/04/02 03:52:20;;;;;;;6.18;3.50;;;;;;;;;;4991427;28;20470;-71
2022/04/02 03:54:46;;;;;;;6.70;3.70;;;;;;;;;;5005692;28;20428;-70
2022/04/02 03:57:13;;;;;;;6.20;3.60;;;;;;;;;;4997630;28;20452;-70
2022/04/02 03:59:40;;;;;;;8.27;3.63;;;;;;;;;;5003576;28;20931;-70
2022/04/02 04:02:07;;;;;;;9.43;3.47;;;;;;;;;;4979166;28;20422;-69
2022/04/02 04:04:33;;;;;;;7.85;3.53;;;;;;;;;;4976992;28;20430;-70
2022/04/02 04:07:00;;;;;;;7.90;3.35;;;;;;;;;;4991544;28;20427;-70
2022/04/02 04:09:27;;;;;;;8.30;3.45;;;;;;;;;;4974250;28;20427;-71
2022/04/02 04:11:54;;;;;;;7.72;3.10;;;;;;;;;;4983815;28;20464;-71
2022/04/02 04:14:20;;;;;;;6.35;3.10;;;;;;;;;;5006235;28;20432;-70
2022/04/02 04:16:47;;;;;;;8.00;3.00;;;;;;;;;;4974921;28;20462;-71
2022/04/02 04:19:13;;;;;;;6.00;3.10;;;;;;;;;;4976350;28;20824;-71
2022/04/02 04:21:40;;;;;;;7.55;3.47;;;;;;;;;;4999369;28;20514;-71
2022/04/02 04:24:08;;;;;;;4.97;2.88;;;;;;;;;;5009322;28;20833;-71
2022/04/02 04:26:34;;;;;;;6.95;2.88;;;;;;;;;;4982279;28;20431;-71
2022/04/02 04:29:00;;;;;;;7.53;3.05;;;;;;;;;;5006601;28;20436;-71
2022/04/02 04:31:26;;;;;;;7.07;3.30;;;;;;;;;;4966651;28;20462;-70
2022/04/02 04:33:53;;;;;;;6.82;2.80;;;;;;;;;;4989157;28;21059;-71
2022/04/02 04:36:20;;;;;;;6.88;2.85;;;;;;;;;;4977935;28;20513;-71
2022/04/02 04:38:47;;;;;;;6.72;2.67;;;;;;;;;;5003178;28;20448;-70
2022/04/02 04:41:13;;;;;;;4.82;2.35;;;;;;;;;;5008685;28;20429;-70
2022/04/02 04:43:41;;;;;;;9.38;3.00;;;;;;;;;;4984023;28;20427;-70
2022/04/02 04:46:07;;;;;;;6.50;2.60;;;;;;;;;;4978810;28;21007;-71
2022/04/02 04:48:35;;;;;;;5.90;2.58;;;;;;;;;;4996696;28;20425;-71
2022/04/02 04:51:02;;;;;;;5.68;2.30;;;;;;;;;;4984098;28;20785;-71
2022/04/02 04:53:28;;;;;;;5.72;2.47;;;;;;;;;;4988757;28;20435;-71
2022/04/02 04:55:54;;;;;;;6.95;2.60;;;;;;;;;;5002119;28;20433;-71
2022/04/02 04:58:20;;;;;;;5.60;2.40;;;;;;;;;;4990751;28;20954;-71
2022/04/02 05:00:46;;;;;;;6.18;2.30;;;;;;;;;;4986404;28;20421;-71
2022/04/02 05:03:12;;;;;;;4.30;2.20;;;;;;;;;;5009083;28;20421;-71
2022/04/02 05:05:38;;;;;;;7.38;2.60;;;;;;;;;;5003106;28;20421;-71
2022/04/02 05:08:06;;;;;;;7.13;2.50;;;;;;;;;;4979945;28;20556;-71
2022/04/02 05:10:32;;;;;;;6.55;2.78;;;;;;;;;;5000831;28;20508;-71
2022/04/02 05:12:59;;;;;;;6.18;2.72;;;;;;;;;;4996413;28;20515;-71
2022/04/02 05:15:25;;;;;;;7.70;2.65;;;;;;;;;;4981171;28;20439;-72
2022/04/02 05:17:51;;;;;;;4.53;2.45;;;;;;;;;;4979669;28;20459;-71
2022/04/02 05:20:17;;;;;;;5.22;2.55;;;;;;;;;;4984313;28;20429;-70
2022/04/02 05:22:44;;;;;;;5.57;2.75;;;;;;;;;;4984816;28;20430;-71
2022/04/02 05:25:17;;;;;;;6.78;2.85;;;;;;;;;;4999067;28;20439;-71
2022/04/02 05:27:43;;;;;;;5.38;2.83;;;;;;;;;;4999615;28;20511;-71
2022/04/02 05:30:11;;;;;;;6.13;2.95;;;;;;;;;;4966901;28;20436;-71
2022/04/02 05:32:37;;;;;;;6.18;2.53;;;;;;;;;;5009043;28;20448;-71
2022/04/02 05:35:04;;;;;;;4.47;2.33;;;;;;;;;;4988009;28;20432;-71
2022/04/02 05:37:30;;;;;;;5.78;2.72;;;;;;;;;;4999263;28;20888;-72
2022/04/02 05:39:56;;;;;;;5.03;2.60;;;;;;;;;;5002527;28;20439;-71
2022/04/02 05:42:23;;;;;;;4.75;2.70;;;;;;;;;;5010803;28;21060;-72
2022/04/02 05:44:54;;;;;;;6.85;3.00;;;;;;;;;;4994905;28;20439;-72
2022/04/02 05:47:20;;;;;;;7.40;2.83;;;;;;;;;;4994311;28;20665;-72
2022/04/02 05:49:48;;;;;;;7.97;2.90;;;;;;;;;;5004839;28;20482;-72
2022/04/02 05:52:14;;;;;;;5.00;2.85;;;;;;;;;;4991074;28;20435;-72
2022/04/02 05:54:42;;;;;;;5.70;2.90;;;;;;;;;;4982225;28;20460;-72
2022/04/02 05:57:08;;;;;;;5.95;3.10;;;;;;;;;;4988876;28;20486;-72
2022/04/02 05:59:34;;;;;;;6.13;3.05;;;;;;;;;;5003114;28;20428;-71
2022/04/02 06:02:01;;;;;;;7.10;3.10;;;;;;;;;;5002537;28;20418;-70
2022/04/02 06:04:28;;;;;;;5.45;3.00;;;1.70;99.90;;;;;;4989003;28;20433;-71
2022/04/02 06:06:54;;;;;;;5.55;2.83;;;;;;;;;;5041401;28;20441;-71
2022/04/02 06:09:20;;;;;;;5.78;3.08;;;;;;;;;;4982845;28;20485;-71
2022/04/02 06:11:46;;;;;;;7.47;3.40;;;;;;;;;;4979352;28;20438;-71
2022/04/02 06:14:13;;;;;;;6.97;2.90;;;;;;;;;;4968710;28;20492;-71
2022/04/02 06:16:39;;;;;;;9.43;3.10;;;;;;;;;;4999786;28;20432;-71
2022/04/02 06:19:06;;;;;;;5.35;2.78;;;;;;;;;;4984222;28;20482;-71
2022/04/02 06:21:33;;;;;;;9.13;3.10;;;;;;;;;;4988469;28;20454;-71
2022/04/02 06:24:04;;;;;;;8.80;2.83;;;;;;;;;;5006105;28;20452;-70
2022/04/02 06:26:30;;;;;;;9.45;3.10;;;;;;;;;;4967812;28;20437;-71
2022/04/02 06:28:59;;;;;;;5.60;2.65;;;;;;;;;;4993569;28;20513;-71
2022/04/02 06:31:25;;;;;;;6.70;3.00;;;;;;;;;;4993170;28;20431;-71
2022/04/02 06:33:51;;;;;;;7.15;2.80;;;;;;;;;;4983993;28;20511;-70
2022/04/02 06:36:17;;;;;;;5.93;2.67;;;;;;;;;;4983210;28;20509;-70
2022/04/02 06:38:43;;;;;;;6.10;2.50;;;;;;;;;;4984405;28;20736;-70
2022/04/02 06:41:09;;;;;;;4.82;2.80;;;;;;;;;;4969688;28;20440;-71
2022/04/02 06:43:35;;;;;;;8.43;3.55;;;;;;;;;;4991797;28;20439;-71
2022/04/02 06:46:01;;;;;;;6.05;3.30;;;;;;;;;;5001925;28;20572;-71
2022/04/02 06:48:28;;;;;;;6.22;3.70;;;;;;;;;;4995530;28;20478;-71
2022/04/02 06:50:54;;;;;;;8.43;3.67;;;;;;;;;;4987343;28;20559;-71
2022/04/02 06:53:20;;;;;;;7.90;4.00;;;;;;;;;;4977744;28;20718;-71
2022/04/02 06:55:46;;;;;;;8.43;3.20;;;;;;;;;;4987023;28;20520;-72
2022/04/02 06:58:41;;;;;;;8.65;4.03;;;2.30;99.90;;;;;;4978972;28;20512;-72
2022/04/02 07:01:07;;;;;;;6.50;3.40;;;;;;;;;;5000385;28;20449;-72
2022/04/02 07:03:35;;;;;;;6.38;3.22;;;;;;;;;;4990415;28;20517;-72
2022/04/02 07:06:01;;;;;;;5.45;3.10;;;;;;;;;;5003382;28;20436;-72
2022/04/02 07:08:28;;;;;;;7.45;2.83;;;;;;;;;;4996371;28;20436;-72
2022/04/02 07:10:54;;;;;;;4.72;2.50;;;;;;;;;;4970364;28;20538;-72
2022/04/02 07:13:20;;;;;;;6.82;2.85;;;;;;;;;;4991581;28;20502;-73
2022/04/02 07:15:46;;;;;;;5.85;2.80;;;;;;;;;;4987511;28;20451;-72
2022/04/02 07:18:12;;;;;;;6.88;2.80;;;;;;;;;;4996809;28;21005;-72
2022/04/02 07:20:39;;;;;;;5.33;2.60;;;;;;;;;;4988538;28;20478;-72
2022/04/02 07:23:09;;;;;;;5.18;2.60;;;;;;;;;;5009202;28;20424;-71
2022/04/02 07:25:37;;;;;;;5.90;2.78;;;;;;;;;;4998325;28;20430;-72
2022/04/02 07:28:04;;;;;;;6.47;3.15;;;;;;;;;;5007838;28;20513;-72
2022/04/02 07:30:31;;;;;;;4.93;3.07;;;;;;;;;;4978269;28;20994;-72
2022/04/02 07:32:57;;;;;;;7.37;3.10;;;;;;;;;;4984976;28;20477;-72
2022/04/02 07:35:23;;;;;;;4.97;2.50;;;;;;;;;;4999645;28;20528;-72
2022/04/02 07:38:03;;;;;;;6.10;2.97;;;;;;;;;;4958577;28;21088;-72
2022/04/02 07:40:30;;;;;;;5.55;2.80;;;;;;;;;;4974692;28;20470;-71
2022/04/02 07:43:18;;;;;;;6.40;3.10;;;;;;;;;;4975798;28;20440;-72
2022/04/02 07:45:47;;;;;;;9.60;3.17;;;;;;;;;;4978856;28;20455;-72
2022/04/02 07:48:14;;;;;;;7.28;3.20;;;;;;;;;;4960480;28;20440;-72
2022/04/02 07:50:44;;;;;;;6.13;3.38;;;;;;;;;;4963045;28;20427;-71
2022/04/02 07:53:20;;;;;;;7.25;3.17;;;;;;;;;;4971293;28;22515;-71
2022/04/02 07:55:48;;;;;;;5.97;2.97;;;;;;;;;;4971987;28;20436;-72
2022/04/02 07:58:16;;;;;;;6.28;2.85;;;2.40;99.90;;;;;;4959723;28;20436;-71
2022/04/02 08:00:47;;;;;;;5.10;2.70;;;;;;;;;;4972927;28;20951;-75
2022/04/02 08:03:13;;;;;;;4.97;2.70;;;;;;;;;;4974398;28;20430;-72
2022/04/02 08:05:39;;;;;;;4.80;3.03;;;;;;;;;;4987921;28;20455;-72
2022/04/02 08:08:07;;;;;;;5.88;2.47;;;;;;;;;;4986969;28;20961;-72
2022/04/02 08:10:35;;;;;;;5.68;2.30;;;;;;;;;;4983516;28;20434;-72
2022/04/02 08:13:01;;;;;;;4.88;2.40;;;;;;;;;;4978034;28;20443;-71
2022/04/02 08:15:27;;;;;;;3.60;2.10;;;;;;;;;;4964216;28;20474;-72
2022/04/02 08:17:55;;;;;;;5.22;2.05;;;;;;;;;;4972911;28;20436;-72
2022/04/02 08:20:24;;;;;;;6.43;2.63;;;;;;;;;;4972848;28;20435;-73
2022/04/02 08:22:51;;;;;;;3.95;2.17;;;;;;;;;;4974263;28;20509;-72
2022/04/02 08:25:17;;;;;;;4.85;2.10;;;;;;;;;;4958735;28;20425;-73
2022/04/02 08:27:47;;;;;;;5.82;2.40;;;;;;;;;;4972312;28;20452;-71
2022/04/02 08:30:17;;;;;;;4.07;2.10;;;;;;;;;;4955866;28;20469;-72
2022/04/02 08:33:02;;;;;;;4.28;2.13;;;;;;;;;;4965401;28;20440;-71
2022/04/02 08:35:48;;;;;;;4.03;2.00;;;;;;;;;;4959198;28;20435;-72
2022/04/02 08:38:34;;;;;;;4.70;2.20;;;;;;;;;;4977771;28;20432;-72
2022/04/02 08:41:19;;;;;;;5.07;2.20;;;;;;;;;;4961357;28;20975;-72
2022/04/02 08:44:04;;;;;;;4.82;1.95;;;;;;;;;;4974073;28;20948;-72
2022/04/02 08:46:33;;;;;;;4.50;1.90;;;;;;;;;;4973054;28;20439;-71
2022/04/02 08:49:05;;;;;;;6.07;2.00;;;;;;;;;;4966073;28;20460;-72
2022/04/02 08:51:31;;;;;;;3.92;1.60;;;;;;;;;;4965535;28;20470;-72
2022/04/02 08:54:12;;;;;;;4.07;2.00;;;;;;;;;;4970319;28;20437;-71
2022/04/02 08:56:44;;;;;;;3.55;1.60;;;;;;;;;;4957624;28;20424;-73
2022/04/02 08:59:14;;;;;;;4.65;1.90;;;;;;;;;;4969430;28;20455;-73
2022/04/02 09:01:42;;;;;;;6.68;2.47;;;;;;;;;;4965557;28;20444;-72
2022/04/02 09:04:27;;;;;;;4.40;1.63;;;;;;;;;;4963715;28;20856;-73
2022/04/02 09:07:12;;;;;;;4.72;1.80;;;;;;;;;;4969134;28;20467;-72
2022/04/02 09:09:57;;;;;;;6.60;2.00;;;;;;;;;;4973738;28;20459;-72
2022/04/02 09:12:47;;;;;;;6.70;1.80;;;;;;;;;;4970306;28;20467;-72
2022/04/02 09:15:13;;;;;;;5.13;1.60;;;;;;;;;;5007075;28;20934;-72
2022/04/02 09:18:16;;;;;;;4.53;1.60;;;6.40;99.90;;;;;;4979941;28;20432;-73
2022/04/02 09:20:51;;;;;;;3.90;1.42;;;;;;;;;;4972912;28;20939;-71
2022/04/02 09:23:29;;;;;;;4.38;1.50;;;;;;;;;;4981293;28;20457;-71
2022/04/02 09:26:14;;;;;;;4.95;1.80;;;;;;;;;;4977452;28;20436;-71
2022/04/02 09:29:18;;;;;;;3.37;1.70;;;;;;;;;;4971362;28;20492;-72
2022/04/02 09:31:54;;;;;;;3.80;1.60;;;;;;;;;;4947756;28;20469;-71
2022/04/02 09:34:25;;;;;;;3.80;1.80;;;;;;;;;;4942934;28;20481;-71
2022/04/02 09:37:13;;;;;;;4.80;1.83;;;;;;;;;;4936924;28;20494;-72
2022/04/02 09:39:52;;;;;;;4.37;1.90;;;;;;;;;;4968436;28;20448;-71
2022/04/02 09:42:18;;;;;;;3.60;1.50;;;;;;;;;;4976631;28;20840;-72
2022/04/02 09:45:01;;;;;;;4.28;1.55;;;;;;;;;;4970255;28;20745;-72
2022/04/02 09:47:33;;;;;;;5.03;1.60;;;;;;;;;;4967745;28;20458;-71
2022/04/02 09:50:10;;;;;;;5.25;1.90;;;;;;;;;;4973870;28;20438;-71
2022/04/02 09:52:37;;;;;;;6.30;1.85;;;;;;;;;;4979776;28;20472;-71
2022/04/02 09:55:17;;;;;;;5.20;1.70;;;;;;;;;;4958412;28;20681;-71
2022/04/02 09:57:46;;;;;;;3.55;1.80;;;;;;;;;;4982687;28;20434;-72
2022/04/02 10:00:22;;;;;;;5.45;1.60;;;;;;;;;;4975653;28;20440;-71
2022/04/02 10:02:54;;;;;;;7.82;1.88;;;;;;;;;;4980966;28;20444;-71
2022/04/02 10:05:24;;;;;;;5.85;1.88;;;;;;;;;;4963171;28;20490;-72
2022/04/02 10:08:04;;;;;;;3.75;1.77;;;;;;;;;;4942857;28;20792;-71
2022/04/02 10:10:30;;;;;;;4.37;1.80;;;;;;;;;;4968887;28;20992;-70
2022/04/02 10:12:57;;;;;;;3.20;1.50;;;;;;;;;;4970745;28;20597;-70
2022/04/02 10:15:24;;;;;;;4.22;1.63;;;;;;;;;;4963962;28;20445;-71
2022/04/02 10:17:54;;;;;;;3.70;1.60;;;;;;;;;;4975223;28;20438;-71
2022/04/02 10:20:21;;;;;;;3.42;1.60;;;;;;;;;;4966447;28;20427;-71
2022/04/02 10:22:47;;;;;;;3.50;1.70;;;;;;;;;;4975873;28;20504;-71
2022/04/02 10:25:15;;;;;;;3.63;1.50;;;;;;;;;;4985869;28;20445;-71
2022/04/02 10:27:44;;;;;;;4.10;1.50;;;;;;;;;;4959837;28;20523;-71
2022/04/02 10:30:12;;;;;;;5.22;1.60;;;;;;;;;;4978260;28;20466;-72
2022/04/02 10:32:57;;;;;;;3.10;1.50;;;;;;;;;;4974504;28;20446;-71
2022/04/02 10:35:25;;;;;;;5.15;1.80;;;;;;;;;;4979129;28;20427;-70
2022/04/02 10:38:04;;;;;;;4.78;1.70;;;7.20;99.90;;;;;;4984447;28;20444;-70
2022/04/02 10:40:31;;;;;;;3.80;1.65;;;;;;;;;;4968618;28;20439;-70
2022/04/02 10:43:04;;;;;;;4.15;1.67;;;;;;;;;;4963281;28;21069;-70
2022/04/02 10:45:30;;;;;;;3.45;1.50;;;;;;;;;;4987616;28;20454;-70
2022/04/02 10:48:09;;;;;;;7.05;1.85;;;;;;;;;;4982354;28;20438;-71
2022/04/02 10:50:35;;;;;;;2.63;1.40;;;;;;;;;;4970829;28;20497;-72
2022/04/02 10:53:02;;;;;;;3.30;1.50;;;;;;;;;;4968897;28;20427;-71
2022/04/02 10:55:29;;;;;;;4.78;1.50;;;;;;;;;;4975243;28;20474;-71
2022/04/02 10:57:59;;;;;;;4.70;1.58;;;;;;;;;;4957289;28;20442;-70
2022/04/02 11:00:28;;;;;;;5.25;1.83;;;;;;;;;;4965115;28;20427;-71
2022/04/02 11:03:02;;;;;;;4.85;1.75;;;;;;;;;;4958019;28;20475;-70
2022/04/02 11:05:34;;;;;;;4.40;1.65;;;;;;;;;;4961566;28;20791;-70
2022/04/02 11:08:05;;;;;;;5.15;1.80;;;;;;;;;;4959334;28;20441;-70
2022/04/02 11:10:33;;;;;;;4.75;1.90;;;;;;;;;;4988062;28;20521;-71
2022/04/02 11:13:00;;;;;;;5.47;1.80;;;;;;;;;;4958469;28;20561;-72
2022/04/02 11:15:31;;;;;;;3.30;1.60;;;;;;;;;;4963450;28;20515;-71
2022/04/02 11:17:59;;;;;;;6.22;2.00;;;;;;;;;;4973976;28;20442;-71
2022/04/02 11:20:27;;;;;;;4.25;1.70;;;;;;;;;;4976125;28;20443;-76
2022/04/02 11:22:57;;;;;;;3.47;1.50;;;;;;;;;;4957849;28;20440;-71
2022/04/02 11:25:32;;;;;;;6.68;1.70;;;;;;;;;;4979618;28;20505;-70
2022/04/02 11:28:11;;;;;;;4.15;1.50;;;;;;;;;;4986440;28;20462;-71
2022/04/02 11:30:43;;;;;;;3.03;1.52;;;;;;;;;;4979648;28;20506;-71
2022/04/02 11:33:12;;;;;;;4.53;1.80;;;;;;;;;;4999894;28;20454;-71
2022/04/02 11:35:59;;;;;;;4.18;1.60;;;;;;;;;;4987334;28;20434;-71
2022/04/02 11:38:32;;;;;;;7.45;1.75;;;;;;;;;;4968724;28;20437;-71
2022/04/02 11:41:04;;;;;;;3.65;1.70;;;;;;;;;;4970581;28;20490;-71
2022/04/02 11:43:32;;;;;;;4.22;1.45;;;;;;;;;;4978088;28;20462;-71
2022/04/02 11:45:59;;;;;;;4.25;1.70;;;;;;;;;;4972710;28;20423;-71
2022/04/02 11:48:32;;;;;;;4.88;1.80;;;6.30;99.90;;;;;;4976432;28;20433;-70
2022/04/02 11:51:19;;;;;;;4.80;1.70;;;;;;;;;;4982643;28;20525;-70
2022/04/02 11:53:45;;;;;;;4.07;1.70;;;;;;;;;;4995853;28;20504;-72
2022/04/02 11:56:44;;;;;;;4.77;1.73;;;;;;;;;;4984146;28;20827;-71
2022/04/02 11:59:18;;;;;;;4.35;1.60;;;;;;;;;;4961635;28;20440;-70
2022/04/02 12:01:46;;;;;;;3.80;1.50;;;;;;;;;;4981091;28;20438;-70
2022/04/02 12:04:16;;;;;;;5.55;1.73;;;;;;;;;;4978281;28;20464;-72
2022/04/02 12:06:43;;;;;;;4.25;1.55;;;;;;;;;;4958075;28;20429;-80
2022/04/02 12:09:13;;;;;;;5.93;1.90;;;;;;;;;;4959299;28;20426;-70
2022/04/02 12:11:42;;;;;;;4.50;1.60;;;;;;;;;;4972973;28;20443;-70
2022/04/02 12:14:08;;;;;;;4.17;1.37;;;;;;;;;;4957785;28;20439;-70
2022/04/02 12:16:38;;;;;;;4.55;1.60;;;;;;;;;;4959531;28;21062;-69
2022/04/02 12:19:07;;;;;;;5.33;1.73;;;6.70;99.90;;;;;;4976106;28;20440;-70
2022/04/02 12:21:34;;;;;;;3.63;1.60;;;;;;;;;;4993386;28;20469;-70
2022/04/02 12:24:01;;;;;;;3.58;1.60;;;;;;;;;;4986755;28;20443;-70
2022/04/02 12:26:30;;;;;;;4.05;1.75;;;;;;;;;;4971644;28;20454;-71
2022/04/02 12:29:00;;;;;;;4.80;1.70;;;;;;;;;;4976179;28;20478;-70
2022/04/02 12:31:27;;;;;;;5.18;1.80;;;;;;;;;;4986872;28;20437;-70
2022/04/02 12:33:54;;;;;;;5.03;1.70;;;;;;;;;;4982244;28;20557;-71
2022/04/02 12:36:34;;;;;;;4.15;1.60;;;;;;;;;;4979683;28;20419;-70
2022/04/02 12:39:10;;;;;;;4.75;1.70;;;;;;;;;;4986525;28;20478;-70
2022/04/02 12:41:50;;;;;;;4.75;1.50;;;;;;;;;;4954611;28;20520;-70
2022/04/02 12:44:21;;;;;;;4.85;1.60;;;;;;;;;;4973102;28;20903;-70
2022/04/02 12:46:47;;;;;;;4.47;1.60;;;;;;;;;;4969171;28;20434;-70
2022/04/02 12:49:30;;;;;;;3.20;1.50;;;7.50;99.90;;;;;;4977853;28;20430;-70
2022/04/02 12:52:15;;;;;;;5.30;1.60;;;;;;;;;;4962443;28;20436;-71
2022/04/02 12:54:44;;;;;;;3.53;1.50;;;;;;;;;;4954420;28;20459;-70
2022/04/02 12:57:12;;;;;;;3.60;1.40;;;;;;;;;;4971483;28;20448;-72
2022/04/02 12:59:50;;;;;;;3.47;1.45;;;6.90;99.90;;;;;;4973205;28;20451;-69
2022/04/02 13:02:19;;;;;;;3.37;1.60;;;;;;;;;;4973784;28;20494;-69
2022/04/02 13:04:56;;;;;;;4.47;1.50;;;;;;;;;;4968847;28;20902;-70
2022/04/02 13:07:22;;;;;;;2.85;1.50;;;;;;;;;;4974297;28;20428;-70
2022/04/02 13:09:54;;;;;;;3.97;1.60;;;;;;;;;;4978917;28;20533;-69
2022/04/02 13:12:24;;;;;;;3.38;1.55;;;;;;;;;;4976653;28;20448;-70
2022/04/02 13:15:09;;;;;;;3.03;1.30;;;;;;;;;;4973673;28;20519;-70
2022/04/02 13:20:44;;;;;;;3.88;1.73;;;;;;;;;;4983804;28;20440;-70
2022/04/02 13:23:46;;;;;;;3.88;1.38;;;7.10;99.90;;;;;;4972917;28;20435;-70
2022/04/02 13:26:14;;;;;;;4.18;1.60;;;;;;;;;;4979368;28;20427;-71
2022/04/02 13:28:52;;;;;;;4.70;1.30;;;;;;;;;;4954431;28;20482;-69
2022/04/02 13:31:23;;;;;;;3.80;1.40;;;;;;;;;;4971722;28;20449;-72
2022/04/02 13:33:52;;;;;;;3.55;1.40;;;;;;;;;;4987657;28;20930;-73
2022/04/02 13:36:37;;;;;;;4.53;1.50;;;;;;;;;;4986952;28;20446;-73
2022/04/02 13:39:09;;;;;;;4.45;1.60;;;;;;;;;;4981390;28;20452;-72
2022/04/02 13:41:37;;;;;;;3.30;1.30;;;;;;;;;;4974262;28;20475;-72
2022/04/02 13:44:05;;;;;;;3.30;1.30;;;;;;;;;;4953046;28;20592;-72
2022/04/02 13:46:38;;;;;;;3.58;1.20;;;;;;;;;;4972901;28;20427;-71
2022/04/02 13:49:06;;;;;;;2.63;1.50;;;;;;;;;;4972992;28;20466;-71
2022/04/02 13:51:48;;;;;;;3.10;1.48;;;;;;;;;;4984118;28;20466;-72
2022/04/02 13:54:34;;;;;;;3.33;1.50;;;;;;;;;;4988910;28;20446;-72
2022/04/02 13:57:06;;;;;;;4.38;1.65;;;;;;;;;;4966162;28;20436;-72
2022/04/02 13:59:52;;;;;;;2.60;1.33;;;;;;;;;;4982018;28;20486;-72
2022/04/02 14:02:26;;;;;;;4.15;1.40;;;;;;;;;;4991463;28;20883;-72
2022/04/02 14:05:00;;;;;;;4.85;1.40;;;;;;;;;;4978419;28;20442;-73
2022/04/02 14:07:29;;;;;;;3.28;1.50;;;;;;;;;;4983555;28;20450;-73
2022/04/02 14:09:58;;;;;;;4.53;1.50;;;;;;;;;;4977593;28;20490;-73
2022/04/02 14:12:28;;;;;;;2.70;1.20;;;;;;;;;;4982599;28;20454;-73
2022/04/02 14:14:56;;;;;;;4.75;1.30;;;;;;;;;;4966756;28;20863;-72
2022/04/02 14:17:27;;;;;;;4.28;1.40;;;;;;;;;;4981394;28;20527;-72
2022/04/02 14:20:00;;;;;;;4.70;1.40;;;;;;;;;;4966238;28;20437;-72
2022/04/02 14:22:27;;;;;;;4.13;1.58;;;;;;;;;;4973619;28;20425;-72
2022/04/02 14:24:53;;;;;;;5.25;1.48;;;;;;;;;;4991863;28;20497;-72
2022/04/02 14:27:19;;;;;;;2.95;1.52;;;;;;;;;;4979060;28;20428;-72
2022/04/02 14:30:11;;;;;;;3.72;1.55;;;;;;;;;;4962078;28;20437;-71
2022/04/02 14:33:01;;;;;;;4.75;2.00;;;;;;;;;;5010218;28;20446;-73
2022/04/02 14:35:39;;;;;;;4.40;1.70;;;;;;;;;;4992385;28;20434;-72
2022/04/02 14:38:32;;;;;;;4.60;1.70;;;;;;;;;;4976028;28;20746;-72
2022/04/02 14:41:27;;;;;;;3.00;1.40;;;7.10;99.90;;;;;;5015301;28;20451;-72
2022/04/02 14:44:08;;;;;;;2.65;1.30;;;;;;;;;;4962394;28;20462;-72
2022/04/02 14:46:46;;;;;;;3.75;1.48;;;7.20;99.90;;;;;;4974820;28;20442;-72
2022/04/02 14:49:31;;;;;;;3.88;1.48;;;;;;;;;;4975178;28;20440;-73
2022/04/02 14:52:16;;;;;;;3.80;1.60;;;;;;;;;;4958248;28;20444;-72
2022/04/02 14:55:01;;;;;;;4.35;1.70;;;;;;;;;;4971412;28;20430;-70
2022/04/02 14:57:47;;;;;;;4.28;1.67;;;;;;;;;;4980355;28;20438;-72
2022/04/02 15:00:32;;;;;;;4.38;2.00;;;;;;;;;;5007243;28;20873;-72
2022/04/02 15:03:17;;;;;;;3.38;1.50;;;;;;;;;;4977346;28;21048;-74